sensor_id;sensor_type;location;lat;lon;timestamp;temperature;humidity
5828;DHT22;42583;50.240;8.444;2023-08-20T00:12:44;22.10;71.40
5828;DHT22;42583;50.240;8.444;2023-08-20T00:27:45;22.00;71.40
5828;DHT22;42583;50.240;8.444;2023-08-20T00:42:45;22.10;71.60
5828;DHT22;42583;50.240;8.444;2023-08-20T00:57:46;22.00;74.40
5828;DHT22;42583;50.240;8.444;2023-08-20T01:12:46;21.90;77.90
5828;DHT22;42583;50.240;8.444;2023-08-20T01:28:47;21.90;79.90
5828;DHT22;42583;50.240;8.444;2023-08-20T01:43:17;21.70;79.50
5828;DHT22;42583;50.240;8.444;2023-08-20T01:58:17;21.60;80.90
5828;DHT22;42583;50.240;8.444;2023-08-20T02:13:18;21.40;80.60
5828;DHT22;42583;50.240;8.444;2023-08-20T02:28:18;21.30;81.70
5828;DHT22;42583;50.240;8.444;2023-08-20T02:43:19;21.10;81.80
5828;DHT22;42583;50.240;8.444;2023-08-20T02:58:19;21.00;82.00
5828;DHT22;42583;50.240;8.444;2023-08-20T03:13:20;20.80;82.00
5828;DHT22;42583;50.240;8.444;2023-08-20T03:28:21;20.80;83.10
5828;DHT22;42583;50.240;8.444;2023-08-20T03:43:21;20.70;85.50
5828;DHT22;42583;50.240;8.444;2023-08-20T03:58:22;20.70;89.40
5828;DHT22;42583;50.240;8.444;2023-08-20T04:13:22;20.70;90.50
5828;DHT22;42583;50.240;8.444;2023-08-20T04:28:23;20.70;90.70
5828;DHT22;42583;50.240;8.444;2023-08-20T04:43:23;20.70;91.60
5828;DHT22;42583;50.240;8.444;2023-08-20T04:58:24;20.90;91.80
5828;DHT22;42583;50.240;8.444;2023-08-20T05:13:24;21.10;92.40
5828;DHT22;42583;50.240;8.444;2023-08-20T05:28:25;21.00;92.70
5828;DHT22;42583;50.240;8.444;2023-08-20T05:43:25;21.20;92.50
5828;DHT22;42583;50.240;8.444;2023-08-20T05:58:26;21.40;92.90
5828;DHT22;42583;50.240;8.444;2023-08-20T06:13:27;21.90;93.70
5828;DHT22;42583;50.240;8.444;2023-08-20T06:28:28;22.40;94.20
5828;DHT22;42583;50.240;8.444;2023-08-20T06:43:29;22.90;94.50
5828;DHT22;42583;50.240;8.444;2023-08-20T06:58:29;22.90;96.20
5828;DHT22;42583;50.240;8.444;2023-08-20T07:13:30;23.20;96.50
5828;DHT22;42583;50.240;8.444;2023-08-20T07:28:30;23.70;96.70
5828;DHT22;42583;50.240;8.444;2023-08-20T07:43:57;24.20;96.70
5828;DHT22;42583;50.240;8.444;2023-08-20T07:58:57;24.70;96.40
5828;DHT22;42583;50.240;8.444;2023-08-20T08:13:58;25.30;94.80
5828;DHT22;42583;50.240;8.444;2023-08-20T08:28:58;25.60;93.90
5828;DHT22;42583;50.240;8.444;2023-08-20T08:43:59;26.30;93.30
5828;DHT22;42583;50.240;8.444;2023-08-20T08:58:59;26.90;91.50
5828;DHT22;42583;50.240;8.444;2023-08-20T09:14:00;27.70;90.60
5828;DHT22;42583;50.240;8.444;2023-08-20T09:29:01;28.90;85.20
5828;DHT22;42583;50.240;8.444;2023-08-20T09:44:03;29.80;80.50
5828;DHT22;42583;50.240;8.444;2023-08-20T09:59:14;30.40;78.50
5828;DHT22;42583;50.240;8.444;2023-08-20T10:14:17;30.70;73.60
5828;DHT22;42583;50.240;8.444;2023-08-20T10:59:58;33.60;61.70
5828;DHT22;42583;50.240;8.444;2023-08-20T11:15:01;33.90;59.70
5828;DHT22;42583;50.240;8.444;2023-08-20T11:30:03;34.00;59.40
5828;DHT22;42583;50.240;8.444;2023-08-20T11:45:09;35.80;57.40
5828;DHT22;42583;50.240;8.444;2023-08-20T12:00:10;37.00;52.40
5828;DHT22;42583;50.240;8.444;2023-08-20T12:15:25;37.90;49.60
5828;DHT22;42583;50.240;8.444;2023-08-20T12:30:25;39.40;45.40
5828;DHT22;42583;50.240;8.444;2023-08-20T12:45:26;40.80;40.60
5828;DHT22;42583;50.240;8.444;2023-08-20T13:00:27;40.60;38.60
5828;DHT22;42583;50.240;8.444;2023-08-20T13:15:28;42.60;35.40
5828;DHT22;42583;50.240;8.444;2023-08-20T13:30:29;42.50;34.40
5828;DHT22;42583;50.240;8.444;2023-08-20T13:45:29;41.90;34.20
5828;DHT22;42583;50.240;8.444;2023-08-20T14:00:31;43.80;32.90
5828;DHT22;42583;50.240;8.444;2023-08-20T14:15:31;45.30;31.50
5828;DHT22;42583;50.240;8.444;2023-08-20T14:30:36;46.20;29.90
5828;DHT22;42583;50.240;8.444;2023-08-20T14:45:37;46.80;29.20
5828;DHT22;42583;50.240;8.444;2023-08-20T15:00:38;48.20;28.50
5828;DHT22;42583;50.240;8.444;2023-08-20T15:15:38;49.20;27.30
5828;DHT22;42583;50.240;8.444;2023-08-20T15:30:39;46.10;27.60
5828;DHT22;42583;50.240;8.444;2023-08-20T15:45:39;40.30;31.80
5828;DHT22;42583;50.240;8.444;2023-08-20T16:00:40;36.80;34.90
5828;DHT22;42583;50.240;8.444;2023-08-20T16:15:41;35.00;36.80
5828;DHT22;42583;50.240;8.444;2023-08-20T16:30:41;33.60;38.50
5828;DHT22;42583;50.240;8.444;2023-08-20T16:45:43;32.50;39.70
5828;DHT22;42583;50.240;8.444;2023-08-20T17:00:43;31.90;40.90
5828;DHT22;42583;50.240;8.444;2023-08-20T17:15:44;31.10;41.70
5828;DHT22;42583;50.240;8.444;2023-08-20T17:30:44;30.60;42.80
5828;DHT22;42583;50.240;8.444;2023-08-20T17:45:44;30.00;44.30
5828;DHT22;42583;50.240;8.444;2023-08-20T18:00:45;29.50;44.90
5828;DHT22;42583;50.240;8.444;2023-08-20T18:15:50;29.00;45.40
5828;DHT22;42583;50.240;8.444;2023-08-20T18:30:51;28.50;47.00
5828;DHT22;42583;50.240;8.444;2023-08-20T18:45:51;27.80;47.80
5828;DHT22;42583;50.240;8.444;2023-08-20T19:00:52;27.20;49.20
5828;DHT22;42583;50.240;8.444;2023-08-20T19:15:52;26.50;50.70
5828;DHT22;42583;50.240;8.444;2023-08-20T19:30:54;26.10;51.60
5828;DHT22;42583;50.240;8.444;2023-08-20T19:45:55;25.60;52.90
5828;DHT22;42583;50.240;8.444;2023-08-20T20:00:55;25.30;54.60
5828;DHT22;42583;50.240;8.444;2023-08-20T20:15:57;25.00;56.30
5828;DHT22;42583;50.240;8.444;2023-08-20T20:30:58;24.90;57.40
5828;DHT22;42583;50.240;8.444;2023-08-20T20:45:59;24.80;58.40
5828;DHT22;42583;50.240;8.444;2023-08-20T21:00:59;24.70;59.30
5828;DHT22;42583;50.240;8.444;2023-08-20T21:16:00;24.50;60.30
5828;DHT22;42583;50.240;8.444;2023-08-20T21:31:00;24.40;61.40
5828;DHT22;42583;50.240;8.444;2023-08-20T21:46:01;24.20;63.50
5828;DHT22;42583;50.240;8.444;2023-08-20T22:01:01;24.10;66.30
5828;DHT22;42583;50.240;8.444;2023-08-20T22:16:04;23.80;70.70
5828;DHT22;42583;50.240;8.444;2023-08-20T22:31:05;23.60;75.10
5828;DHT22;42583;50.240;8.444;2023-08-20T22:46:05;23.30;80.00
5828;DHT22;42583;50.240;8.444;2023-08-20T23:01:06;23.20;84.80
5828;DHT22;42583;50.240;8.444;2023-08-20T23:16:06;23.00;89.50
5828;DHT22;42583;50.240;8.444;2023-08-20T23:31:07;22.80;91.30
5828;DHT22;42583;50.240;8.444;2023-08-20T23:46:08;22.70;92.40
